Airfield :
LOGIN :

Register | Disclaimer

   EN    FR    IT 

 










Legend :    VFR   Marginal VFR   IFR   Intensive IFR   Very Intensive IFR
Visi :
Ceiling :
>= 8 km
>= 3000ft
5 to 8 km
1000 to 3000 ft
1500m to 5 km
500 to 1000 ft
800 to 1500m
200 to 500 ft
< 800m
< 200 ft
Symbols :   Thunderstorms  Fog  Heavy snow  Heavy precipitations  Wind > 20 kt
SIGMETs :     Misc.  Thunderstorms  Icing  Turbulence  Mountain Waves  Volcanic Ashes






- Airport Elevation : 1300 ft
- IATA code : LIG


LFBL - Limoges

CURRENT METAR :
  • 281600Z AUTO 04013KT CAVOK 25/09 Q1023 NOSIG

EXPIRED METARs :
  • 281530Z AUTO 05013KT CAVOK 25/09 Q1023 NOSIG
  • 281500Z AUTO 06012KT 030V090 CAVOK 25/09 Q1024 NOSIG
  • 281430Z AUTO 05011KT 030V090 CAVOK 25/08 Q1024 NOSIG
  • 281400Z AUTO 06011KT CAVOK 25/07 Q1024 NOSIG
  • 281330Z AUTO 07010KT 040V100 CAVOK 25/08 Q1025 NOSIG

TAF TAF LFBL
Valid from the 28 at 12:00 until the 29 at 12:00 UTC


281100Z 2812/2912 06012KT CAVOK
ATIS : +33 5 55 48 40 37



MET'MAP, your aeronautical weather chart ! - Copyright ORBIFLY December 2007 - Disclaimer

ORBIFLY MET'MAP TEAM :

Programming & Development : Alexandra Zaïnal
Concept & original design : Baudouin d'Aumeries
Assistance for programming : Marc-Olivier Méhu
Technical & hardware support : Manuel Goepfert

Contact : metmap@orbifly.com




SOURCES & CREDITS :

   NOAA